Time;durP1;ratioP1;P1;durP2;ratioP2;P2;SDS_P1;SDS_P2;PMS_P1;PMS_P2;Temp;Humidity;BMP_temperature;BMP_pressure;BME280_temperature;BME280_humidity;BME280_pressure;Samples;Min_cycle;Max_cycle;Signal;HPM_P1;HPM_P2
2023/01/23 00:01:03;;;;;;;12.00;10.00;;;;;;;;;;5016928;28;20290;-53
2023/01/23 00:03:29;;;;;;;14.87;11.50;;;;;;;;;;5024464;28;20818;-51
2023/01/23 00:05:58;;;;;;;14.20;11.73;;;;;;;;;;5017270;28;20259;-52
2023/01/23 00:08:24;;;;;;;15.30;12.10;;;;;;;;;;5016912;28;20796;-53
2023/01/23 00:10:50;;;;;;;16.40;11.23;;;;;;;;;;5019797;28;20318;-53
2023/01/23 00:13:17;;;;;;;18.53;12.70;;;;;;;;;;5019496;28;20317;-52
2023/01/23 00:15:43;;;;;;;14.97;11.80;;;;;;;;;;5022182;28;20231;-52
2023/01/23 00:18:10;;;;;;;14.87;11.70;;;;;;;;;;5020928;28;20241;-53
2023/01/23 00:20:37;;;;;;;14.43;10.53;;;;;;;;;;5022487;28;20308;-53
2023/01/23 00:23:04;;;;;;;15.87;10.20;;;;;;;;;;5022479;28;20823;-53
2023/01/23 00:25:31;;;;;;;17.63;12.63;;;;;;;;;;5020202;28;20232;-53
2023/01/23 00:27:57;;;;;;;15.20;11.03;;;;;;;;;;5022019;28;20300;-54
2023/01/23 00:30:24;;;;;;;16.20;11.70;;;;;;;;;;5016480;28;20231;-53
2023/01/23 00:32:50;;;;;;;14.93;11.93;;;;;;;;;;5025879;28;20243;-52
2023/01/23 00:35:17;;;;;;;14.23;11.23;;;;;;;;;;5022656;28;20246;-53
2023/01/23 00:37:43;;;;;;;17.23;12.90;;;;;;;;;;5022471;28;20793;-54
2023/01/23 00:40:12;;;;;;;18.87;12.27;;;;;;;;;;5021358;28;22254;-53
2023/01/23 00:42:38;;;;;;;15.13;11.73;;;;;;;;;;5025402;28;20236;-52
2023/01/23 00:45:05;;;;;;;14.90;11.20;;;;;;;;;;5027426;28;20251;-53
2023/01/23 00:47:31;;;;;;;13.33;11.33;;;;;;;;;;5031594;28;20255;-53
2023/01/23 00:49:58;;;;;;;16.47;11.60;;;;;;;;;;5026628;28;20240;-54
2023/01/23 00:52:25;;;;;;;15.67;12.10;;;;;;;;;;5028810;28;20244;-53
2023/01/23 00:54:51;;;;;;;12.83;9.87;;;;;;;;;;5018048;28;20646;-53
2023/01/23 00:57:19;;;;;;;14.70;11.77;;;;;;;;;;5026655;28;20686;-52
2023/01/23 00:59:45;;;;;;;18.47;14.07;;;;;;;;;;5021904;28;20280;-53
2023/01/23 01:02:12;;;;;;;14.67;11.53;;;;;;;;;;5024951;28;20235;-52
2023/01/23 01:04:38;;;;;;;13.77;11.13;;;;;;;;;;5022156;28;20231;-52
2023/01/23 01:07:04;;;;;;;15.57;11.90;;;;;;;;;;5027280;28;20368;-53
2023/01/23 01:09:31;;;;;;;13.70;10.67;;;;;;;;;;5026675;28;20322;-52
2023/01/23 01:11:57;;;;;;;18.73;12.30;;;;;;;;;;5024806;28;21017;-53
2023/01/23 01:14:25;;;;;;;13.53;11.23;;;;;;;;;;5025233;28;20307;-52
2023/01/23 01:16:51;;;;;;;16.70;12.73;;;;;;;;;;5030566;28;20279;-53
2023/01/23 01:19:18;;;;;;;15.23;10.67;;;;;;;;;;5038233;28;20255;-52
2023/01/23 01:21:45;;;;;;;19.07;11.87;;;;;;;;;;5033048;28;20238;-52
2023/01/23 01:24:11;;;;;;;18.10;13.10;;;;;;;;;;5029859;28;20237;-53
2023/01/23 01:26:39;;;;;;;17.67;11.93;;;;;;;;;;5024359;28;20250;-53
2023/01/23 01:29:05;;;;;;;16.60;12.70;;;;;;;;;;5027343;28;20248;-53
2023/01/23 01:31:33;;;;;;;17.03;12.43;;;;;;;;;;5024512;28;20238;-53
2023/01/23 01:33:59;;;;;;;18.30;11.80;;;;;;;;;;5026205;28;20302;-52
2023/01/23 01:36:26;;;;;;;14.13;11.37;;;;;;;;;;5035187;28;20319;-53
2023/01/23 01:38:52;;;;;;;17.97;12.33;;;;;;;;;;5020034;28;20832;-53
2023/01/23 01:41:19;;;;;;;15.63;12.67;;;;;;;;;;5023880;28;20236;-56
2023/01/23 01:43:45;;;;;;;14.10;10.60;;;;;;;;;;5015157;28;20240;-54
2023/01/23 01:46:16;;;;;;;16.97;12.63;;;;;;;;;;5013989;28;20248;-53
2023/01/23 01:48:46;;;;;;;15.57;11.70;;;;;;;;;;5018920;28;20278;-54
2023/01/23 01:51:17;;;;;;;16.23;11.17;;;;;;;;;;5021907;28;20263;-53
2023/01/23 01:53:45;;;;;;;15.80;12.43;;;;;;;;;;5018418;28;20244;-53
2023/01/23 01:56:12;;;;;;;14.67;10.67;;;;;;;;;;5002573;28;20832;-54
2023/01/23 01:58:40;;;;;;;17.53;12.23;;;;;;;;;;5013840;28;20733;-53
2023/01/23 02:01:06;;;;;;;15.80;12.70;;;;;;;;;;5021310;28;20307;-53
2023/01/23 02:03:36;;;;;;;14.60;11.37;;;;;;;;;;5019840;28;20334;-51
2023/01/23 02:06:04;;;;;;;16.13;11.80;;;;;;;;;;5024051;28;20236;-52
2023/01/23 02:08:34;;;;;;;17.27;11.90;;;;;;;;;;5022992;28;20255;-52
2023/01/23 02:11:02;;;;;;;15.07;11.30;;;;;;;;;;5022234;28;20224;-53
2023/01/23 02:13:32;;;;;;;17.63;11.87;;;;;;;;;;5024668;28;20326;-52
2023/01/23 02:15:59;;;;;;;17.40;12.63;;;;;;;;;;5022841;28;20279;-54
2023/01/23 02:18:27;;;;;;;18.60;12.73;;;;;;;;;;5024419;28;20236;-52
2023/01/23 02:20:54;;;;;;;16.73;12.80;;;;;;;;;;5021602;28;20248;-52
2023/01/23 02:23:34;;;;;;;17.90;11.60;;;;;;;;;;5024707;28;20244;-53
2023/01/23 02:26:04;;;;;;;17.17;11.90;;;;;;;;;;5017877;28;20331;-51
2023/01/23 02:28:38;;;;;;;19.80;11.90;;;;;;;;;;5023138;28;20589;-51
2023/01/23 02:31:05;;;;;;;15.63;11.70;;;;;;;;;;5020275;28;20238;-52
2023/01/23 02:33:45;;;;;;;15.27;11.67;;;;;;;;;;5025117;28;20236;-52
2023/01/23 02:36:12;;;;;;;16.47;12.23;;;;;;;;;;5011844;28;20247;-52
2023/01/23 02:38:40;;;;;;;15.97;12.03;;;;;;;;;;5021003;28;20463;-52
2023/01/23 02:41:10;;;;;;;17.53;12.13;;;;;;;;;;5016220;28;20238;-52
2023/01/23 02:43:37;;;;;;;16.93;12.50;;;;;;;;;;5022285;28;20231;-52
2023/01/23 02:46:04;;;;;;;17.10;11.27;;;;;;;;;;5012258;28;20247;-53
2023/01/23 02:48:31;;;;;;;16.90;12.47;;;;;;;;;;5019386;28;20246;-52
2023/01/23 02:50:57;;;;;;;14.93;11.37;;;;;;;;;;5021770;28;20617;-52
2023/01/23 02:53:24;;;;;;;17.33;11.93;;;;;;;;;;5018881;28;20236;-53
2023/01/23 02:55:51;;;;;;;16.23;13.20;;;;;;;;;;5018638;28;20298;-53
2023/01/23 03:01:03;;;;;;;17.60;12.87;;;;;;;;;;5022726;28;20748;-53
2023/01/23 03:03:29;;;;;;;17.10;12.30;;;;;;;;;;5024644;28;20225;-53
2023/01/23 03:05:56;;;;;;;16.40;12.77;;;;;;;;;;5020778;28;21306;-53
2023/01/23 03:08:32;;;;;;;18.57;13.40;;;;;;;;;;5022675;28;20326;-53
2023/01/23 03:10:58;;;;;;;15.60;11.77;;;;;;;;;;5023692;28;20235;-52
2023/01/23 03:13:26;;;;;;;15.97;12.60;;;;;;;;;;5030670;28;20239;-56
2023/01/23 03:15:53;;;;;;;16.40;12.40;;;;;;;;;;5031150;28;20741;-54
2023/01/23 03:18:20;;;;;;;17.73;12.70;;;;;;;;;;5028668;28;20231;-54
2023/01/23 03:20:46;;;;;;;15.47;12.23;;;;;;;;;;5039276;28;20236;-53
2023/01/23 03:23:13;;;;;;;15.07;11.80;;;;;;;;;;5025130;28;20903;-52
2023/01/23 03:25:43;;;;;;;14.93;11.73;;;;;;;;;;5023132;28;20242;-52
2023/01/23 03:30:11;;;;;;;16.10;11.33;;;;;;;;;;5021786;28;20244;-53
2023/01/23 03:30:56;;;;;;;14.90;11.53;;;;;;;;;;5012978;28;20326;-54
2023/01/23 03:33:23;;;;;;;20.13;13.90;;;;;;;;;;5019373;28;20239;-52
2023/01/23 03:35:50;;;;;;;16.60;12.57;;;;;;;;;;5023105;28;22024;-54
2023/01/23 03:38:18;;;;;;;17.80;11.87;;;;;;;;;;5021661;28;20338;-52
2023/01/23 03:43:30;;;;;;;19.07;12.20;;;;;;;;;;5020328;28;20251;-53
2023/01/23 03:45:58;;;;;;;18.07;13.53;;;;;;;;;;5022263;28;20277;-52
2023/01/23 03:48:25;;;;;;;19.97;11.97;;;;;;;;;;5022206;28;20243;-53
2023/01/23 03:50:52;;;;;;;17.93;11.57;;;;;;;;;;5024200;28;20239;-52
2023/01/23 03:53:18;;;;;;;18.13;12.63;;;;;;;;;;5024035;28;20250;-52
2023/01/23 03:55:45;;;;;;;17.20;11.60;;;;;;;;;;5022785;28;20228;-52
2023/01/23 03:58:12;;;;;;;19.53;13.80;;;;;;;;;;5023351;28;20604;-52
2023/01/23 04:00:38;;;;;;;17.20;12.90;;;;;;;;;;5031122;28;20778;-52
2023/01/23 04:03:06;;;;;;;16.40;13.07;;;;;;;;;;5023100;28;20779;-52
2023/01/23 04:05:33;;;;;;;15.13;12.50;;;;;;;;;;5021523;28;20247;-53
2023/01/23 04:07:59;;;;;;;17.87;12.87;;;;;;;;;;5022561;28;20240;-52
2023/01/23 04:10:26;;;;;;;15.70;12.93;;;;;;;;;;5023334;28;20242;-52
2023/01/23 04:12:53;;;;;;;16.10;12.67;;;;;;;;;;5021559;28;20243;-53
2023/01/23 04:15:19;;;;;;;21.70;14.33;;;;;;;;;;5021795;28;20845;-53
2023/01/23 04:17:46;;;;;;;18.20;13.30;;;;;;;;;;5015932;28;20235;-53
2023/01/23 04:20:14;;;;;;;18.00;13.23;;;;;;;;;;5024890;28;20930;-53
2023/01/23 04:22:40;;;;;;;15.40;12.23;;;;;;;;;;5022005;28;20771;-53
2023/01/23 04:25:07;;;;;;;17.20;12.67;;;;;;;;;;5021826;28;20711;-52
2023/01/23 04:27:34;;;;;;;19.80;13.47;;;;;;;;;;5017038;28;20603;-53
2023/01/23 04:30:00;;;;;;;17.43;13.00;;;;;;;;;;5020183;28;20225;-52
2023/01/23 04:32:27;;;;;;;17.33;12.80;;;;;;;;;;5019567;28;20235;-52
2023/01/23 04:34:54;;;;;;;18.67;13.20;;;;;;;;;;5020781;28;20274;-53
2023/01/23 04:37:22;;;;;;;17.77;12.97;;;;;;;;;;5019553;28;20246;-53
2023/01/23 04:39:48;;;;;;;24.10;15.20;;;;;;;;;;5020238;28;20334;-54
2023/01/23 04:42:15;;;;;;;18.50;13.43;;;;;;;;;;5013194;28;20231;-52
2023/01/23 04:44:41;;;;;;;17.97;13.40;;;;;;;;;;5016965;28;20244;-53
2023/01/23 04:47:08;;;;;;;19.20;13.17;;;;;;;;;;5023852;28;20236;-52
2023/01/23 04:49:35;;;;;;;15.37;12.00;;;;;;;;;;5031027;28;20291;-54
2023/01/23 04:52:01;;;;;;;18.67;13.87;;;;;;;;;;5024273;28;20716;-55
2023/01/23 04:54:29;;;;;;;19.07;13.53;;;;;;;;;;5021937;28;20706;-52
2023/01/23 04:56:56;;;;;;;17.80;13.07;;;;;;;;;;5025303;28;20257;-52
2023/01/23 04:59:22;;;;;;;16.20;12.17;;;;;;;;;;5025339;28;20253;-52
2023/01/23 05:01:49;;;;;;;18.07;13.70;;;;;;;;;;5025134;28;20265;-52
2023/01/23 05:04:15;;;;;;;18.77;13.70;;;;;;;;;;5013608;28;20238;-52
2023/01/23 05:06:42;;;;;;;15.37;12.30;;;;;;;;;;5022975;28;20736;-53
2023/01/23 05:09:08;;;;;;;19.37;13.23;;;;;;;;;;5031758;28;20314;-52
2023/01/23 05:11:36;;;;;;;19.30;13.67;;;;;;;;;;5026967;28;20242;-53
2023/01/23 05:14:03;;;;;;;19.07;13.73;;;;;;;;;;5028172;28;20325;-53
2023/01/23 05:16:29;;;;;;;20.43;14.23;;;;;;;;;;5022955;28;20235;-53
2023/01/23 05:18:55;;;;;;;16.80;13.53;;;;;;;;;;5024337;28;20236;-52
2023/01/23 05:21:22;;;;;;;16.63;13.10;;;;;;;;;;5028749;28;20236;-52
2023/01/23 05:23:49;;;;;;;18.80;13.87;;;;;;;;;;5023583;28;20267;-53
2023/01/23 05:26:15;;;;;;;21.33;13.33;;;;;;;;;;5027310;28;20262;-54
2023/01/23 05:28:43;;;;;;;15.57;12.70;;;;;;;;;;5027680;28;20233;-52
2023/01/23 05:31:10;;;;;;;19.40;13.57;;;;;;;;;;5029711;28;20331;-53
2023/01/23 05:33:36;;;;;;;20.53;13.93;;;;;;;;;;5030050;28;20240;-52
2023/01/23 05:36:03;;;;;;;18.67;13.90;;;;;;;;;;5025212;28;20714;-52
2023/01/23 05:38:29;;;;;;;19.53;14.20;;;;;;;;;;5022242;28;20240;-52
2023/01/23 05:40:56;;;;;;;19.73;14.30;;;;;;;;;;5025482;28;20243;-55
2023/01/23 05:43:23;;;;;;;18.53;14.17;;;;;;;;;;5019033;28;20234;-52
2023/01/23 05:45:51;;;;;;;21.20;13.83;;;;;;;;;;5021558;28;20269;-52
2023/01/23 05:48:17;;;;;;;18.87;14.67;;;;;;;;;;5022759;28;20313;-54
2023/01/23 05:50:44;;;;;;;19.13;13.87;;;;;;;;;;5026782;28;20237;-52
2023/01/23 05:53:10;;;;;;;21.23;14.33;;;;;;;;;;5024450;28;20244;-53
2023/01/23 05:55:37;;;;;;;20.50;14.17;;;;;;;;;;5021404;28;20249;-52
2023/01/23 05:58:04;;;;;;;18.93;14.90;;;;;;;;;;5023090;28;20231;-53
2023/01/23 06:00:30;;;;;;;23.07;12.90;;;;;;;;;;5026801;28;20613;-53
2023/01/23 06:02:58;;;;;;;18.97;14.00;;;;;;;;;;5031391;28;20234;-52
2023/01/23 06:05:25;;;;;;;18.93;13.97;;;;;;;;;;5022097;28;20310;-53
2023/01/23 06:07:52;;;;;;;19.50;13.87;;;;;;;;;;5022930;28;20241;-53
2023/01/23 06:10:18;;;;;;;19.57;13.27;;;;;;;;;;5025808;28;20270;-52
2023/01/23 06:12:45;;;;;;;20.47;13.57;;;;;;;;;;5025683;28;20246;-53
2023/01/23 06:15:12;;;;;;;17.93;14.23;;;;;;;;;;5025020;28;20248;-51
2023/01/23 06:17:38;;;;;;;17.77;13.93;;;;;;;;;;5022517;28;20259;-53
2023/01/23 06:20:07;;;;;;;17.80;13.20;;;;;;;;;;5026677;28;20273;-52
2023/01/23 06:22:33;;;;;;;23.23;15.20;;;;;;;;;;5022831;28;20236;-52
2023/01/23 06:25:00;;;;;;;21.90;15.13;;;;;;;;;;5019910;28;20749;-52
2023/01/23 06:27:26;;;;;;;20.23;15.30;;;;;;;;;;5024355;28;20287;-53
2023/01/23 06:29:53;;;;;;;18.37;14.03;;;;;;;;;;5038783;28;20225;-53
2023/01/23 06:32:19;;;;;;;20.50;14.83;;;;;;;;;;5029278;28;20246;-52
2023/01/23 06:34:46;;;;;;;24.83;15.07;;;;;;;;;;5020926;28;20246;-53
2023/01/23 06:37:14;;;;;;;19.73;14.27;;;;;;;;;;5026535;28;20521;-52
2023/01/23 06:39:40;;;;;;;19.57;14.10;;;;;;;;;;5027455;28;20772;-52
2023/01/23 06:42:09;;;;;;;17.93;13.17;;;;;;;;;;5022134;28;20260;-55
2023/01/23 06:44:35;;;;;;;19.63;13.60;;;;;;;;;;5026470;28;20266;-53
2023/01/23 06:47:02;;;;;;;17.07;12.57;;;;;;;;;;5025665;28;20314;-53
2023/01/23 06:49:28;;;;;;;17.00;13.47;;;;;;;;;;5024156;28;20228;-52
2023/01/23 06:51:55;;;;;;;21.73;14.37;;;;;;;;;;5025607;28;20238;-53
2023/01/23 06:54:23;;;;;;;20.03;14.33;;;;;;;;;;5026050;28;20288;-52
2023/01/23 06:56:50;;;;;;;19.97;14.37;;;;;;;;;;5022748;28;20751;-52
2023/01/23 06:59:16;;;;;;;19.77;13.93;;;;;;;;;;5024206;28;20242;-52
2023/01/23 07:01:43;;;;;;;19.40;14.37;;;;;;;;;;5020041;28;20239;-56
2023/01/23 07:04:10;;;;;;;21.17;14.57;;;;;;;;;;5024749;28;20239;-53
2023/01/23 07:06:36;;;;;;;22.63;15.07;;;;;;;;;;5025053;28;20319;-53
2023/01/23 07:09:03;;;;;;;19.90;14.20;;;;;;;;;;5022793;28;20236;-56
2023/01/23 07:11:31;;;;;;;19.93;14.43;;;;;;;;;;5024906;28;20239;-54
2023/01/23 07:13:58;;;;;;;17.27;13.47;;;;;;;;;;5025060;28;20251;-53
2023/01/23 07:16:24;;;;;;;19.93;15.37;;;;;;;;;;5024934;28;20240;-53
2023/01/23 07:18:51;;;;;;;22.07;14.33;;;;;;;;;;5026576;28;20752;-53
2023/01/23 07:21:17;;;;;;;18.47;13.67;;;;;;;;;;5025383;28;20698;-55
2023/01/23 07:23:44;;;;;;;19.27;14.37;;;;;;;;;;5020057;28;20368;-52
2023/01/23 07:26:11;;;;;;;19.70;13.30;;;;;;;;;;5024986;28;20324;-52
2023/01/23 07:28:39;;;;;;;20.60;12.47;;;;;;;;;;5023321;28;20252;-61
2023/01/23 07:31:06;;;;;;;17.57;13.37;;;;;;;;;;5020569;28;20240;-54
2023/01/23 07:33:32;;;;;;;18.23;13.57;;;;;;;;;;5022132;28;20653;-53
2023/01/23 07:35:59;;;;;;;18.97;15.13;;;;;;;;;;5013861;28;20243;-52
2023/01/23 07:38:25;;;;;;;19.50;14.07;;;;;;;;;;5021127;28;20372;-53
2023/01/23 07:40:52;;;;;;;19.17;14.93;;;;;;;;;;5022209;28;20243;-53
2023/01/23 07:43:19;;;;;;;21.80;14.53;;;;;;;;;;5021592;28;20244;-54
2023/01/23 07:45:47;;;;;;;18.47;14.27;;;;;;;;;;5023198;28;20290;-53
2023/01/23 07:48:13;;;;;;;16.50;12.57;;;;;;;;;;5012862;28;20565;-53
2023/01/23 07:50:40;;;;;;;19.87;14.30;;;;;;;;;;5020585;28;20312;-52
2023/01/23 07:53:06;;;;;;;18.53;12.73;;;;;;;;;;5014069;28;20227;-53
2023/01/23 07:55:33;;;;;;;19.30;13.87;;;;;;;;;;5011731;28;20267;-52
2023/01/23 07:58:00;;;;;;;18.23;14.60;;;;;;;;;;5025680;28;20286;-53
2023/01/23 08:00:26;;;;;;;20.27;14.50;;;;;;;;;;5020368;28;20233;-53
2023/01/23 08:02:54;;;;;;;22.57;14.53;;;;;;;;;;5024291;28;20335;-53
2023/01/23 08:05:20;;;;;;;18.50;14.37;;;;;;;;;;5016712;28;20257;-53
2023/01/23 08:07:47;;;;;;;20.13;14.63;;;;;;;;;;5007153;28;20240;-53
2023/01/23 08:10:13;;;;;;;19.53;13.83;;;;;;;;;;5008686;28;20298;-53
2023/01/23 08:12:40;;;;;;;21.27;14.57;;;;;;;;;;5016312;28;20300;-52
2023/01/23 08:15:07;;;;;;;16.80;13.40;;;;;;;;;;5019923;28;20345;-54
2023/01/23 08:17:34;;;;;;;20.43;13.77;;;;;;;;;;5019067;28;20232;-52
2023/01/23 08:20:02;;;;;;;17.47;13.83;;;;;;;;;;5020905;28;20227;-52
2023/01/23 08:22:28;;;;;;;20.53;14.27;;;;;;;;;;5021822;28;20646;-53
2023/01/23 08:24:54;;;;;;;20.37;14.23;;;;;;;;;;5016263;28;20690;-51
2023/01/23 08:27:21;;;;;;;17.70;14.03;;;;;;;;;;5020682;28;21085;-52
2023/01/23 08:29:49;;;;;;;21.50;15.10;;;;;;;;;;5015200;28;20239;-53
2023/01/23 08:32:20;;;;;;;18.93;14.80;;;;;;;;;;5018076;28;20281;-52
2023/01/23 08:34:46;;;;;;;19.00;14.50;;;;;;;;;;5021970;28;20250;-53
2023/01/23 08:37:14;;;;;;;22.60;16.43;;;;;;;;;;5023815;28;20247;-52
2023/01/23 08:39:41;;;;;;;21.20;15.57;;;;;;;;;;5022811;28;20234;-53
2023/01/23 08:42:07;;;;;;;23.80;15.77;;;;;;;;;;5021827;28;20246;-53
2023/01/23 08:44:34;;;;;;;22.70;15.40;;;;;;;;;;5020155;28;20259;-52
2023/01/23 08:47:01;;;;;;;22.03;16.23;;;;;;;;;;5021746;28;20322;-54
2023/01/23 08:49:27;;;;;;;21.47;15.40;;;;;;;;;;5020730;28;20229;-54
2023/01/23 08:51:55;;;;;;;19.77;16.40;;;;;;;;;;5022665;28;20236;-53
2023/01/23 08:54:23;;;;;;;20.97;14.27;;;;;;;;;;5021675;28;20831;-53
2023/01/23 08:56:50;;;;;;;18.77;13.57;;;;;;;;;;5017876;28;20240;-52
2023/01/23 08:59:17;;;;;;;22.93;15.67;;;;;;;;;;5022070;28;20264;-52
2023/01/23 09:01:45;;;;;;;23.07;15.83;;;;;;;;;;5018000;28;20321;-53
2023/01/23 09:04:11;;;;;;;20.40;14.30;;;;;;;;;;5016705;28;20715;-54
2023/01/23 09:06:38;;;;;;;19.50;14.97;;;;;;;;;;5018358;28;20244;-51
2023/01/23 09:09:05;;;;;;;22.83;15.07;;;;;;;;;;5018846;28;20279;-55
2023/01/23 09:11:32;;;;;;;21.37;15.07;;;;;;;;;;5020676;28;20239;-52
2023/01/23 09:13:59;;;;;;;19.70;14.23;;;;;;;;;;4988579;28;20244;-52
2023/01/23 09:16:25;;;;;;;18.20;14.43;;;;;;;;;;5008628;28;20228;-53
2023/01/23 09:18:52;;;;;;;19.30;14.33;;;;;;;;;;5007276;28;20240;-53
2023/01/23 09:21:18;;;;;;;21.07;14.60;;;;;;;;;;5024561;28;20750;-54
2023/01/23 09:23:45;;;;;;;17.93;13.23;;;;;;;;;;5028847;28;20238;-52
2023/01/23 09:26:12;;;;;;;20.27;14.70;;;;;;;;;;5032499;28;20300;-52
2023/01/23 09:28:41;;;;;;;20.00;13.90;;;;;;;;;;5033325;28;20242;-52
2023/01/23 09:31:09;;;;;;;20.17;14.97;;;;;;;;;;5027881;28;20240;-52
2023/01/23 09:33:36;;;;;;;20.73;15.63;;;;;;;;;;5035954;28;20523;-53
2023/01/23 09:36:03;;;;;;;19.93;14.60;;;;;;;;;;5036240;28;20334;-52
2023/01/23 09:38:32;;;;;;;21.30;14.37;;;;;;;;;;5035588;28;20266;-53
2023/01/23 09:40:59;;;;;;;21.63;14.53;;;;;;;;;;5034487;28;20248;-52
2023/01/23 09:43:29;;;;;;;19.37;13.13;;;;;;;;;;5029834;28;20236;-53
2023/01/23 09:46:01;;;;;;;21.77;14.60;;;;;;;;;;5026744;28;20242;-52
2023/01/23 09:48:29;;;;;;;20.63;14.57;;;;;;;;;;5028812;28;20250;-53
2023/01/23 09:50:59;;;;;;;17.50;14.13;;;;;;;;;;5028962;28;20267;-53
2023/01/23 09:53:30;;;;;;;19.67;15.17;;;;;;;;;;5023611;28;20235;-53
2023/01/23 09:55:59;;;;;;;19.47;13.57;;;;;;;;;;5024639;28;20306;-53
2023/01/23 09:58:28;;;;;;;19.30;13.70;;;;;;;;;;5021150;28;20240;-54
2023/01/23 10:00:54;;;;;;;20.33;13.87;;;;;;;;;;5029803;28;20293;-53
2023/01/23 10:03:23;;;;;;;16.80;12.37;;;;;;;;;;5033041;28;20235;-52
2023/01/23 10:06:00;;;;;;;19.17;14.50;;;;;;;;;;5028149;28;20288;-52
2023/01/23 10:08:33;;;;;;;20.13;14.40;;;;;;;;;;5024058;28;20843;-51
2023/01/23 10:11:03;;;;;;;19.93;13.90;;;;;;;;;;5020756;28;20336;-52
2023/01/23 10:13:46;;;;;;;17.73;14.23;;;;;;;;;;5024599;28;20805;-52
2023/01/23 10:16:18;;;;;;;18.20;14.47;;;;;;;;;;5016553;28;20248;-52
2023/01/23 10:18:53;;;;;;;17.17;13.13;;;;;;;;;;5024263;28;20835;-55
2023/01/23 10:21:22;;;;;;;18.77;13.27;;;;;;;;;;5025513;28;20232;-53
2023/01/23 10:23:56;;;;;;;18.90;13.47;;;;;;;;;;5029646;28;20769;-52
2023/01/23 10:26:24;;;;;;;18.00;14.87;;;;;;;;;;5024616;28;20223;-53
2023/01/23 10:28:53;;;;;;;17.53;13.63;;;;;;;;;;5035224;28;21150;-53
2023/01/23 10:31:23;;;;;;;20.00;14.13;;;;;;;;;;5031505;28;20689;-52
2023/01/23 10:33:54;;;;;;;19.27;14.47;;;;;;;;;;5020582;28;20243;-51
2023/01/23 10:36:23;;;;;;;19.30;14.90;;;;;;;;;;5021397;28;20640;-53
2023/01/23 10:38:54;;;;;;;16.80;13.73;;;;;;;;;;5029691;28;20337;-52
2023/01/23 10:41:21;;;;;;;19.37;14.43;;;;;;;;;;5024409;28;20223;-54
2023/01/23 10:43:49;;;;;;;21.77;15.30;;;;;;;;;;5025399;28;20307;-52
2023/01/23 10:46:16;;;;;;;17.30;14.20;;;;;;;;;;5031655;28;20225;-53
2023/01/23 10:48:45;;;;;;;19.53;14.53;;;;;;;;;;5032248;28;20254;-51
2023/01/23 10:51:30;;;;;;;20.20;14.43;;;;;;;;;;5019733;28;20239;-52
2023/01/23 10:54:10;;;;;;;21.97;15.83;;;;;;;;;;5027501;28;20610;-55
2023/01/23 10:56:39;;;;;;;21.83;15.50;;;;;;;;;;5020830;28;20289;-54
2023/01/23 10:59:06;;;;;;;18.83;14.53;;;;;;;;;;5020399;28;20357;-53
2023/01/23 11:01:33;;;;;;;20.83;15.03;;;;;;;;;;5022250;28;20254;-52
2023/01/23 11:04:09;;;;;;;21.97;15.10;;;;;;;;;;5023048;28;20756;-51
2023/01/23 11:06:37;;;;;;;18.33;13.93;;;;;;;;;;5019150;28;20941;-53
2023/01/23 11:09:03;;;;;;;17.97;14.40;;;;;;;;;;5022450;28;20243;-54
2023/01/23 11:11:31;;;;;;;19.20;14.57;;;;;;;;;;5027935;28;20264;-52
2023/01/23 11:14:08;;;;;;;19.90;15.53;;;;;;;;;;5029038;28;20239;-53
2023/01/23 11:16:34;;;;;;;20.70;15.30;;;;;;;;;;5019746;28;20646;-53
2023/01/23 11:19:10;;;;;;;21.20;15.97;;;;;;;;;;5028531;28;20239;-52
2023/01/23 11:21:38;;;;;;;18.33;14.83;;;;;;;;;;5022567;28;20311;-53
2023/01/23 11:24:10;;;;;;;20.47;15.53;;;;;;;;;;5030336;28;20239;-52
2023/01/23 11:26:36;;;;;;;21.50;14.53;;;;;;;;;;5029879;28;20253;-53
2023/01/23 11:29:19;;;;;;;25.10;15.97;;;;;;;;;;5028108;28;20240;-51
2023/01/23 11:31:45;;;;;;;16.17;13.10;;;;;;;;;;5018777;28;20267;-51
2023/01/23 11:34:12;;;;;;;21.60;14.67;;;;;;;;;;5020079;28;20231;-55
2023/01/23 11:36:45;;;;;;;17.73;13.77;;;;;;;;;;5027566;28;20577;-53
2023/01/23 11:39:16;;;;;;;22.97;14.97;;;;;;;;;;5031552;28;20247;-53
2023/01/23 11:41:43;;;;;;;18.30;14.30;;;;;;;;;;5027210;28;20603;-56
2023/01/23 11:44:15;;;;;;;20.50;15.80;;;;;;;;;;5029875;28;20234;-51
2023/01/23 11:46:49;;;;;;;21.17;14.70;;;;;;;;;;5019528;28;20226;-53
2023/01/23 11:49:24;;;;;;;18.00;14.60;;;;;;;;;;5023235;28;20249;-52
2023/01/23 11:51:56;;;;;;;19.97;14.53;;;;;;;;;;5024335;28;20242;-52
2023/01/23 11:54:33;;;;;;;22.43;16.47;;;;;;;;;;5022932;28;20239;-52
2023/01/23 11:57:02;;;;;;;20.97;15.47;;;;;;;;;;5020912;28;20313;-52
2023/01/23 11:59:38;;;;;;;22.83;15.73;;;;;;;;;;5024951;28;20726;-53
2023/01/23 12:02:35;;;;;;;20.07;14.90;;;;;;;;;;5029449;28;20616;-52
2023/01/23 12:05:23;;;;;;;20.57;14.23;;;;;;;;;;4939241;28;20683;-53
2023/01/23 12:07:57;;;;;;;17.47;14.47;;;;;;;;;;4991943;28;20296;-53
2023/01/23 12:10:27;;;;;;;20.40;13.53;;;;;;;;;;5024010;28;20231;-54
2023/01/23 12:13:16;;;;;;;23.63;15.80;;;;;;;;;;5028332;28;20614;-52
2023/01/23 12:15:45;;;;;;;17.90;13.90;;;;;;;;;;5022472;28;20246;-52
2023/01/23 12:18:17;;;;;;;16.30;13.63;;;;;;;;;;5022373;28;20705;-53
2023/01/23 12:20:51;;;;;;;17.93;13.73;;;;;;;;;;5023862;28;20237;-52
2023/01/23 12:23:34;;;;;;;17.83;13.20;;;;;;;;;;5027321;28;20651;-52
2023/01/23 12:26:06;;;;;;;20.67;15.40;;;;;;;;;;5022551;28;20326;-54
2023/01/23 12:28:48;;;;;;;17.20;13.53;;;;;;;;;;5024878;28;20278;-54
2023/01/23 12:31:21;;;;;;;17.60;14.20;;;;;;;;;;5012053;28;20729;-54
2023/01/23 12:34:00;;;;;;;18.10;13.60;;;;;;;;;;5029191;28;20244;-52
2023/01/23 12:36:35;;;;;;;17.10;13.50;;;;;;;;;;5021014;28;20317;-53
2023/01/23 12:39:09;;;;;;;16.60;13.50;;;;;;;;;;5033860;28;20243;-53
2023/01/23 12:41:39;;;;;;;18.77;14.00;;;;;;;;;;5018099;28;20311;-53
2023/01/23 12:44:10;;;;;;;20.10;14.13;;;;;;;;;;5028723;28;20322;-53
2023/01/23 12:46:39;;;;;;;17.13;12.83;;;;;;;;;;5024442;28;20231;-54
2023/01/23 12:49:13;;;;;;;16.37;12.43;;;;;;;;;;5028430;28;20254;-53
2023/01/23 12:51:40;;;;;;;14.83;11.30;;;;;;;;;;5023558;28;20227;-52
2023/01/23 12:54:14;;;;;;;15.03;11.90;;;;;;;;;;5035336;28;20345;-53
2023/01/23 12:56:40;;;;;;;14.57;11.57;;;;;;;;;;5016715;28;20232;-52
2023/01/23 12:59:13;;;;;;;19.03;11.33;;;;;;;;;;5023114;28;20243;-52
2023/01/23 13:02:00;;;;;;;14.67;11.23;;;;;;;;;;5020355;28;20320;-53
2023/01/23 13:04:35;;;;;;;16.17;12.20;;;;;;;;;;5018700;28;20769;-54
2023/01/23 13:07:08;;;;;;;18.00;12.70;;;;;;;;;;5021849;28;20242;-53
2023/01/23 13:09:41;;;;;;;17.10;11.70;;;;;;;;;;5027738;28;20310;-51
2023/01/23 13:12:17;;;;;;;16.20;11.43;;;;;;;;;;5018302;28;20252;-51
2023/01/23 13:14:44;;;;;;;14.73;10.43;;;;;;;;;;5015017;28;20315;-53
2023/01/23 13:17:34;;;;;;;14.93;10.17;;;;;;;;;;5028292;28;20242;-52
2023/01/23 13:23:19;;;;;;;17.67;10.80;;;;;;;;;;5022647;28;20270;-53
2023/01/23 13:25:47;;;;;;;15.50;10.77;;;;;;;;;;5030469;28;20235;-53
2023/01/23 13:28:34;;;;;;;15.20;11.07;;;;;;;;;;5025255;28;20250;-51
2023/01/23 13:31:01;;;;;;;14.47;10.67;;;;;;;;;;5020312;28;20224;-54
2023/01/23 13:33:54;;;;;;;18.10;10.57;;;;;;;;;;5028036;28;20238;-53
2023/01/23 13:36:34;;;;;;;15.67;10.27;;;;;;;;;;5026154;28;20323;-53
2023/01/23 13:39:01;;;;;;;13.87;10.27;;;;;;;;;;5025627;28;20315;-52
2023/01/23 13:41:32;;;;;;;14.83;10.97;;;;;;;;;;5028427;28;20232;-52
2023/01/23 13:44:03;;;;;;;13.83;9.63;;;;;;;;;;5025357;28;20504;-52
2023/01/23 13:46:37;;;;;;;14.57;10.50;;;;;;;;;;5029990;28;20782;-52
2023/01/23 13:51:52;;;;;;;10.37;9.00;;;;;;;;;;5025190;28;20237;-52
2023/01/23 13:57:06;;;;;;;14.17;10.73;;;;;;;;;;5015926;28;20247;-52
2023/01/23 13:59:35;;;;;;;13.77;9.47;;;;;;;;;;5025007;28;20256;-53
2023/01/23 14:05:15;;;;;;;12.50;9.23;;;;;;;;;;5026970;28;20696;-51
2023/01/23 14:07:47;;;;;;;11.57;8.73;;;;;;;;;;5019172;28;20802;-53
2023/01/23 14:10:15;;;;;;;14.90;9.47;;;;;;;;;;5022609;28;20233;-52
2023/01/23 14:12:43;;;;;;;15.60;10.03;;;;;;;;;;5026256;28;20231;-53
2023/01/23 14:18:04;;;;;;;12.67;10.40;;;;;;;;;;5026650;28;20787;-52
2023/01/23 14:20:31;;;;;;;10.57;9.23;;;;;;;;;;5026805;28;20241;-52
2023/01/23 14:22:58;;;;;;;11.03;9.20;;;;;;;;;;5026102;28;20768;-52
2023/01/23 14:25:24;;;;;;;16.37;9.80;;;;;;;;;;5025327;28;20243;-52
2023/01/23 14:28:03;;;;;;;12.07;10.10;;;;;;;;;;5022466;28;20241;-54
2023/01/23 14:30:30;;;;;;;14.57;9.27;;;;;;;;;;5022859;28;20229;-53
2023/01/23 14:32:57;;;;;;;15.53;10.07;;;;;;;;;;5015947;28;20752;-53
2023/01/23 14:35:25;;;;;;;14.27;9.50;;;;;;;;;;5019866;28;20231;-53
2023/01/23 14:37:54;;;;;;;11.87;9.87;;;;;;;;;;5013781;28;20240;-53
2023/01/23 14:40:21;;;;;;;14.30;9.57;;;;;;;;;;5020692;28;20371;-53
2023/01/23 14:42:52;;;;;;;13.57;9.30;;;;;;;;;;5024541;28;20710;-53
2023/01/23 14:45:20;;;;;;;13.70;9.63;;;;;;;;;;5026251;28;20242;-52
2023/01/23 14:47:47;;;;;;;11.10;8.83;;;;;;;;;;5026226;28;20650;-53